createdAt,value
2018-08-18T00:00:22.753Z,11.78
2018-08-18T00:02:51.445Z,11.83
2018-08-18T00:05:20.179Z,11.72
2018-08-18T00:07:48.933Z,11.62
2018-08-18T00:10:21.285Z,11.54
2018-08-18T00:12:49.952Z,11.47
2018-08-18T00:15:19.024Z,11.45
2018-08-18T00:17:47.676Z,11.42
2018-08-18T00:20:19.358Z,11.40
2018-08-18T00:22:48.136Z,11.41
2018-08-18T00:25:16.805Z,11.45
2018-08-18T00:27:45.481Z,11.43
2018-08-18T00:30:19.372Z,11.39
2018-08-18T00:32:47.994Z,11.31
2018-08-18T00:35:16.734Z,11.19
2018-08-18T00:37:45.364Z,11.07
2018-08-18T00:40:14.076Z,10.95
2018-08-18T00:42:42.736Z,10.94
2018-08-18T00:45:12.926Z,10.90
2018-08-18T00:47:41.878Z,10.79
2018-08-18T00:50:11.370Z,10.78
2018-08-18T00:52:40.112Z,10.83
2018-08-18T00:55:08.774Z,10.85
2018-08-18T00:57:37.443Z,10.86
2018-08-18T01:00:06.879Z,10.91
2018-08-18T01:02:35.713Z,10.90
2018-08-18T01:05:05.008Z,10.94
2018-08-18T01:07:33.815Z,10.95
2018-08-18T01:10:03.161Z,10.93
2018-08-18T01:12:32.010Z,10.93
2018-08-18T01:15:00.677Z,10.88
2018-08-18T01:17:29.304Z,10.77
2018-08-18T01:19:58.927Z,10.71
2018-08-18T01:22:27.585Z,10.74
2018-08-18T01:24:56.233Z,10.72
2018-08-18T01:27:24.908Z,10.67
2018-08-18T01:29:58.684Z,10.60
2018-08-18T01:32:27.373Z,10.50
2018-08-18T01:34:56.009Z,10.44
2018-08-18T01:37:24.672Z,10.43
2018-08-18T01:39:55.133Z,10.47
2018-08-18T01:42:24.260Z,10.49
2018-08-18T01:44:53.659Z,10.42
2018-08-18T01:47:22.343Z,10.37
2018-08-18T01:49:50.982Z,10.37
2018-08-18T01:52:23.895Z,10.43
2018-08-18T01:54:52.593Z,10.35
2018-08-18T01:57:22.315Z,10.25
2018-08-18T01:59:51.206Z,10.19
2018-08-18T02:02:22.246Z,10.19
2018-08-18T02:04:51.178Z,10.22
2018-08-18T02:07:25.491Z,10.19
2018-08-18T02:09:54.847Z,10.11
2018-08-18T02:12:23.869Z,10.12
2018-08-18T02:14:52.560Z,10.06
2018-08-18T02:17:25.779Z,9.93
2018-08-18T02:19:54.816Z,9.82
2018-08-18T02:22:24.291Z,9.71
2018-08-18T02:24:53.012Z,9.64
2018-08-18T02:27:21.678Z,9.60
2018-08-18T02:30:02.321Z,9.62
2018-08-18T02:32:32.515Z,9.67
2018-08-18T02:35:01.212Z,9.55
2018-08-18T02:37:30.664Z,9.41
2018-08-18T02:39:59.336Z,9.42
2018-08-18T02:42:28.061Z,9.46
2018-08-18T02:44:56.735Z,9.48
2018-08-18T02:47:25.524Z,9.52
2018-08-18T02:49:55.278Z,9.58
2018-08-18T02:52:25.198Z,9.67
2018-08-18T02:54:55.093Z,9.71
2018-08-18T02:57:33.923Z,9.66
2018-08-18T03:00:03.707Z,9.68
2018-08-18T03:02:32.432Z,9.61
2018-08-18T03:05:01.109Z,9.52
2018-08-18T03:07:45.605Z,9.44
2018-08-18T03:10:19.510Z,9.40
2018-08-18T03:12:48.202Z,9.34
2018-08-18T03:15:32.066Z,9.24
2018-08-18T03:18:00.725Z,9.25
2018-08-18T03:20:29.383Z,9.31
2018-08-18T03:22:58.035Z,9.24
2018-08-18T03:25:38.564Z,9.10
2018-08-18T03:28:07.219Z,9.01
2018-08-18T03:30:42.599Z,8.94
2018-08-18T03:33:11.256Z,8.92
2018-08-18T03:35:39.915Z,8.93
2018-08-18T03:38:08.594Z,8.92
2018-08-18T03:40:37.227Z,8.88
2018-08-18T03:43:05.960Z,8.86
2018-08-18T03:45:35.881Z,8.86
2018-08-18T03:48:04.784Z,8.84
2018-08-18T03:50:44.523Z,8.81
2018-08-18T03:53:16.403Z,8.74
2018-08-18T03:55:45.044Z,8.71
2018-08-18T03:58:13.708Z,8.75
2018-08-18T04:00:42.994Z,8.83
2018-08-18T04:03:11.662Z,8.89
2018-08-18T04:05:40.303Z,8.90
2018-08-18T04:08:08.992Z,8.85
2018-08-18T04:10:37.622Z,8.79
2018-08-18T04:13:06.260Z,8.86
2018-08-18T04:15:34.913Z,8.88
2018-08-18T04:18:07.628Z,8.89
2018-08-18T04:20:36.287Z,8.86
2018-08-18T04:23:04.959Z,8.87
2018-08-18T04:25:33.630Z,8.87
2018-08-18T04:28:02.259Z,8.90
2018-08-18T04:30:30.928Z,8.85
2018-08-18T04:33:02.947Z,8.81
2018-08-18T04:35:32.482Z,8.79
2018-08-18T04:38:03.101Z,8.80
2018-08-18T04:40:32.079Z,8.78
2018-08-18T04:43:01.773Z,8.92
2018-08-18T04:45:30.459Z,8.92
2018-08-18T04:47:59.128Z,8.97
2018-08-18T04:50:27.795Z,9.00
2018-08-18T04:52:56.487Z,9.07
2018-08-18T04:55:25.150Z,9.09
2018-08-18T04:57:53.836Z,9.19
2018-08-18T05:00:22.496Z,9.22
2018-08-18T05:02:57.112Z,9.29
2018-08-18T05:05:27.943Z,9.48
2018-08-18T05:07:58.420Z,9.68
2018-08-18T05:10:27.786Z,9.88
2018-08-18T05:12:56.435Z,10.09
2018-08-18T05:15:25.101Z,10.28
2018-08-18T05:17:53.749Z,10.48
2018-08-18T05:20:24.510Z,10.75
2018-08-18T05:22:53.146Z,11.24
2018-08-18T05:25:28.987Z,11.53
2018-08-18T05:27:57.872Z,12.19
2018-08-18T05:30:26.532Z,12.89
2018-08-18T05:32:55.175Z,13.13
2018-08-18T05:35:23.854Z,13.07
2018-08-18T05:37:52.482Z,12.76
2018-08-18T05:40:21.199Z,12.53
2018-08-18T05:42:49.853Z,12.55
2018-08-18T05:45:25.636Z,12.75
2018-08-18T05:47:54.660Z,12.76
2018-08-18T05:50:25.879Z,12.75
2018-08-18T05:52:58.227Z,12.72
2018-08-18T05:55:27.146Z,12.90
2018-08-18T05:57:55.768Z,13.05
2018-08-18T06:00:25.633Z,13.20
2018-08-18T06:02:59.900Z,13.32
2018-08-18T06:05:30.677Z,13.29
2018-08-18T06:08:00.365Z,13.41
2018-08-18T06:10:29.133Z,13.55
2018-08-18T06:12:58.761Z,13.81
2018-08-18T06:15:27.426Z,14.08
2018-08-18T06:17:56.067Z,14.24
2018-08-18T06:20:24.703Z,14.30
2018-08-18T06:22:53.327Z,14.35
2018-08-18T06:25:22.375Z,14.42
2018-08-18T06:27:51.037Z,14.44
2018-08-18T06:30:19.969Z,14.53
2018-08-18T06:32:48.667Z,14.64
2018-08-18T06:35:17.322Z,14.81
2018-08-18T06:37:50.147Z,14.97
2018-08-18T06:40:18.791Z,15.06
2018-08-18T06:42:47.427Z,15.15
2018-08-18T06:45:17.932Z,15.28
2018-08-18T06:47:46.595Z,15.39
2018-08-18T06:50:17.400Z,15.54
2018-08-18T06:52:46.778Z,15.67
2018-08-18T06:58:11.880Z,15.93
2018-08-18T07:00:40.607Z,16.11
2018-08-18T07:03:20.678Z,16.36
2018-08-18T07:05:49.422Z,16.54
2018-08-18T07:08:18.079Z,16.72
2018-08-18T07:10:46.736Z,16.96
2018-08-18T07:13:15.381Z,17.18
2018-08-18T07:15:45.156Z,17.40
2018-08-18T07:18:14.838Z,17.59
2018-08-18T07:20:43.872Z,17.85
2018-08-18T07:23:12.514Z,18.08
2018-08-18T07:25:47.636Z,18.33
2018-08-18T07:28:18.059Z,18.43
2018-08-18T07:30:46.824Z,18.49
2018-08-18T07:33:15.503Z,18.65
2018-08-18T07:35:44.178Z,18.82
2018-08-18T07:38:12.851Z,18.92
2018-08-18T07:40:42.211Z,18.98
2018-08-18T07:43:12.028Z,19.09
2018-08-18T07:45:40.646Z,19.19
2018-08-18T07:48:09.426Z,19.40
2018-08-18T07:50:38.119Z,19.60
2018-08-18T07:53:07.652Z,19.70
2018-08-18T07:55:36.306Z,19.88
2018-08-18T07:58:08.230Z,20.08
2018-08-18T08:00:37.970Z,20.27
2018-08-18T08:03:08.103Z,20.46
2018-08-18T08:05:36.760Z,20.55
2018-08-18T08:08:05.817Z,20.64
2018-08-18T08:10:34.497Z,20.61
2018-08-18T08:13:03.272Z,20.76
2018-08-18T08:15:31.870Z,20.86
2018-08-18T08:18:00.613Z,20.95
2018-08-18T08:20:29.328Z,21.20
2018-08-18T08:22:58.060Z,21.44
2018-08-18T08:25:26.722Z,21.51
2018-08-18T08:27:55.802Z,21.48
2018-08-18T08:30:25.694Z,21.57
2018-08-18T08:32:54.456Z,21.69
2018-08-18T08:35:23.180Z,21.76
2018-08-18T08:37:53.194Z,21.88
2018-08-18T08:40:22.799Z,21.98
2018-08-18T08:42:51.513Z,21.81
2018-08-18T08:45:21.393Z,21.82
2018-08-18T08:47:50.487Z,21.88
2018-08-18T08:50:21.083Z,21.76
2018-08-18T08:52:57.670Z,22.03
2018-08-18T08:55:27.487Z,22.29
2018-08-18T08:57:56.217Z,22.42
2018-08-18T09:00:24.852Z,22.51
2018-08-18T09:02:53.520Z,22.45
2018-08-18T09:05:22.247Z,22.17
2018-08-18T09:07:50.947Z,22.47
2018-08-18T09:10:19.631Z,22.79
2018-08-18T09:12:48.269Z,22.99
2018-08-18T09:15:17.742Z,23.23
2018-08-18T09:17:46.451Z,23.29
2018-08-18T09:20:18.416Z,23.37
2018-08-18T09:22:59.964Z,23.46
2018-08-18T09:25:30.174Z,23.41
2018-08-18T09:28:00.313Z,23.33
2018-08-18T09:30:30.339Z,23.08
2018-08-18T09:33:00.448Z,23.08
2018-08-18T09:35:29.108Z,22.86
2018-08-18T09:38:00.767Z,22.80
2018-08-18T09:40:31.183Z,22.83
2018-08-18T09:43:00.002Z,23.09
2018-08-18T09:45:28.734Z,23.49
2018-08-18T09:47:57.350Z,23.76
2018-08-18T09:50:26.007Z,24.13
2018-08-18T09:52:54.677Z,24.33
2018-08-18T09:55:23.387Z,24.69
2018-08-18T09:57:52.050Z,24.90
2018-08-18T10:00:24.868Z,24.50
2018-08-18T10:02:53.521Z,23.93
2018-08-18T10:05:22.172Z,24.03
2018-08-18T10:07:50.810Z,24.00
2018-08-18T10:10:19.620Z,24.10
2018-08-18T10:12:48.277Z,24.20
2018-08-18T10:15:16.952Z,24.58
2018-08-18T10:17:45.676Z,24.73
2018-08-18T10:20:14.354Z,24.81
2018-08-18T10:22:42.988Z,24.39
2018-08-18T10:25:11.661Z,24.22
2018-08-18T10:27:40.322Z,24.45
2018-08-18T10:30:09.052Z,24.72
2018-08-18T10:32:44.827Z,25.05
2018-08-18T10:35:17.624Z,24.65
2018-08-18T10:37:46.286Z,24.00
2018-08-18T10:40:14.936Z,23.71
2018-08-18T10:42:43.576Z,23.54
2018-08-18T10:45:12.299Z,23.63
2018-08-18T10:47:41.151Z,23.61
2018-08-18T10:51:24.608Z,23.50
2018-08-18T10:53:54.171Z,23.32
2018-08-18T10:56:23.392Z,23.64
2018-08-18T10:59:33.973Z,24.43
2018-08-18T11:02:05.723Z,24.96
2018-08-18T11:04:35.544Z,25.33
2018-08-18T11:07:04.763Z,25.46
2018-08-18T11:09:33.986Z,25.59
2018-08-18T11:12:03.265Z,25.68
2018-08-18T11:14:31.947Z,25.56
2018-08-18T11:17:00.614Z,25.21
2018-08-18T11:19:29.264Z,25.22
2018-08-18T11:22:09.133Z,25.31
2018-08-18T11:24:37.800Z,25.52
2018-08-18T11:27:06.439Z,25.42
2018-08-18T11:29:35.113Z,25.53
2018-08-18T11:32:03.752Z,25.76
2018-08-18T11:34:32.407Z,25.93
2018-08-18T11:37:06.832Z,25.87
2018-08-18T11:39:35.480Z,25.90
2018-08-18T11:42:04.140Z,25.88
2018-08-18T11:44:32.793Z,26.03
2018-08-18T11:47:02.000Z,25.99
2018-08-18T11:49:30.654Z,25.74
2018-08-18T11:51:59.320Z,25.23
2018-08-18T11:54:27.995Z,25.19
2018-08-18T11:56:56.655Z,25.65
2018-08-18T11:59:25.303Z,26.01
2018-08-18T12:01:55.756Z,26.23
2018-08-18T12:04:24.572Z,26.41
2018-08-18T12:06:57.139Z,26.38
2018-08-18T12:09:25.799Z,26.47
2018-08-18T12:11:54.567Z,26.66
2018-08-18T12:14:23.338Z,26.30
2018-08-18T12:16:52.910Z,26.32
2018-08-18T12:19:21.568Z,26.50
2018-08-18T12:21:50.249Z,26.22
2018-08-18T12:24:20.308Z,26.42
2018-08-18T12:27:00.157Z,26.78
2018-08-18T12:29:30.958Z,26.79
2018-08-18T12:31:59.839Z,26.84
2018-08-18T12:34:28.519Z,26.84
2018-08-18T12:36:57.266Z,26.74
2018-08-18T12:39:25.862Z,26.80
2018-08-18T12:41:54.549Z,26.85
2018-08-18T12:44:29.909Z,26.86
2018-08-18T12:46:58.616Z,26.69
2018-08-18T12:49:27.296Z,26.69
2018-08-18T12:51:55.949Z,26.81
2018-08-18T12:54:24.620Z,26.65
2018-08-18T12:56:53.294Z,26.44
2018-08-18T12:59:21.953Z,26.62
2018-08-18T13:01:51.153Z,26.69
2018-08-18T13:04:21.189Z,26.60
2018-08-18T13:06:52.430Z,26.48
2018-08-18T13:09:22.519Z,26.50
2018-08-18T13:11:52.502Z,26.76
2018-08-18T13:14:23.721Z,26.93
2018-08-18T13:16:52.390Z,26.96
2018-08-18T13:19:23.120Z,26.91
2018-08-18T13:21:51.791Z,27.06
2018-08-18T13:24:20.457Z,26.97
2018-08-18T13:26:49.132Z,26.69
2018-08-18T13:29:17.776Z,26.49
2018-08-18T13:31:46.447Z,26.45
2018-08-18T13:34:16.442Z,26.57
2018-08-18T13:36:46.111Z,26.52
2018-08-18T13:39:16.117Z,26.53
2018-08-18T13:41:45.748Z,26.62
2018-08-18T13:44:20.798Z,26.75
2018-08-18T13:46:50.713Z,26.89
2018-08-18T13:49:20.846Z,27.02
2018-08-18T13:51:49.539Z,27.04
2018-08-18T13:54:18.223Z,27.14
2018-08-18T13:56:47.098Z,26.98
2018-08-18T13:59:35.752Z,26.93
2018-08-18T14:02:04.481Z,26.93
2018-08-18T14:04:33.136Z,27.05
2018-08-18T14:07:02.070Z,26.88
2018-08-18T14:09:30.704Z,26.87
2018-08-18T14:12:04.650Z,26.93
2018-08-18T14:14:33.287Z,26.87
2018-08-18T14:17:02.019Z,26.89
2018-08-18T14:19:30.705Z,27.04
2018-08-18T14:22:04.716Z,27.03
2018-08-18T14:24:35.058Z,27.04
2018-08-18T14:27:04.817Z,26.86
2018-08-18T14:29:34.287Z,26.73
2018-08-18T14:32:05.328Z,26.52
2018-08-18T14:34:33.955Z,26.56
2018-08-18T14:37:06.738Z,26.85
2018-08-18T14:39:37.646Z,26.89
2018-08-18T14:42:07.016Z,26.80
2018-08-18T14:44:36.155Z,26.69
2018-08-18T14:47:04.884Z,26.40
2018-08-18T14:49:33.530Z,26.14
2018-08-18T14:52:02.265Z,26.10
2018-08-18T14:54:31.966Z,26.18
2018-08-18T14:57:02.757Z,26.07
2018-08-18T14:59:36.626Z,26.14
2018-08-18T15:02:07.115Z,26.02
2018-08-18T15:04:36.497Z,25.93
2018-08-18T15:07:05.155Z,25.97
2018-08-18T15:09:43.662Z,26.08
2018-08-18T15:12:12.361Z,26.14
2018-08-18T15:14:41.160Z,26.30
2018-08-18T15:17:09.858Z,26.53
2018-08-18T15:19:38.697Z,26.61
2018-08-18T15:22:09.841Z,26.67
2018-08-18T15:24:38.888Z,26.44
2018-08-18T15:27:07.649Z,26.38
2018-08-18T15:29:36.320Z,26.27
2018-08-18T15:32:05.044Z,26.23
2018-08-18T15:34:33.733Z,26.18
2018-08-18T15:37:02.433Z,26.15
2018-08-18T15:39:31.103Z,26.00
2018-08-18T15:42:01.030Z,25.75
2018-08-18T15:44:29.695Z,25.58
2018-08-18T15:46:58.726Z,25.60
2018-08-18T15:49:27.449Z,25.70
2018-08-18T15:51:56.159Z,25.74
2018-08-18T15:54:25.854Z,25.86
2018-08-18T15:56:54.452Z,25.92
2018-08-18T15:59:23.095Z,25.84
2018-08-18T16:01:51.736Z,25.86
2018-08-18T16:04:20.371Z,25.89
2018-08-18T16:06:49.002Z,25.76
2018-08-18T16:09:17.658Z,25.58
2018-08-18T16:11:46.285Z,25.52
2018-08-18T16:14:14.934Z,25.41
2018-08-18T16:16:55.883Z,25.34
2018-08-18T16:19:25.230Z,25.16
2018-08-18T16:21:53.940Z,25.07
2018-08-18T16:24:32.012Z,25.02
2018-08-18T16:27:02.364Z,24.89
2018-08-18T16:29:31.019Z,24.78
2018-08-18T16:32:13.467Z,24.78
2018-08-18T16:34:43.523Z,24.80
2018-08-18T16:37:12.167Z,24.81
2018-08-18T16:39:41.567Z,24.74
2018-08-18T16:42:11.047Z,24.75
2018-08-18T16:44:40.079Z,24.74
2018-08-18T16:47:08.736Z,24.71
2018-08-18T16:49:37.386Z,24.69
2018-08-18T16:52:06.076Z,24.64
2018-08-18T16:54:34.800Z,24.65
2018-08-18T16:57:03.459Z,24.63
2018-08-18T16:59:35.428Z,24.64
2018-08-18T17:02:04.540Z,24.71
2018-08-18T17:04:34.244Z,24.80
2018-08-18T17:07:04.597Z,24.92
2018-08-18T17:09:41.858Z,24.98
2018-08-18T17:12:21.493Z,25.05
2018-08-18T17:14:50.175Z,25.06
2018-08-18T17:17:18.860Z,24.93
2018-08-18T17:19:47.547Z,24.90
2018-08-18T17:22:16.605Z,24.77
2018-08-18T17:24:45.237Z,24.64
2018-08-18T17:27:13.895Z,24.46
2018-08-18T17:29:44.094Z,24.32
2018-08-18T17:32:12.723Z,24.22
2018-08-18T17:34:41.360Z,24.06
2018-08-18T17:37:10.082Z,23.91
2018-08-18T17:39:38.850Z,23.76
2018-08-18T17:42:07.490Z,23.64
2018-08-18T17:44:36.151Z,23.51
2018-08-18T17:47:08.964Z,23.40
2018-08-18T17:49:46.754Z,23.27
2018-08-18T17:52:15.450Z,23.17
2018-08-18T17:54:53.550Z,23.03
2018-08-18T17:57:22.171Z,22.92
2018-08-18T17:59:50.798Z,22.84
2018-08-18T18:02:19.425Z,22.73
2018-08-18T18:04:52.928Z,22.62
2018-08-18T18:07:21.664Z,22.57
2018-08-18T18:09:50.304Z,22.55
2018-08-18T18:12:24.231Z,22.59
2018-08-18T18:14:52.844Z,22.44
2018-08-18T18:17:22.509Z,22.28
2018-08-18T18:19:51.847Z,22.21
2018-08-18T18:22:20.572Z,22.09
2018-08-18T18:24:50.690Z,22.02
2018-08-18T18:27:19.576Z,21.87
2018-08-18T18:29:48.238Z,21.67
2018-08-18T18:32:16.881Z,21.47
2018-08-18T18:34:47.750Z,21.29
2018-08-18T18:37:16.419Z,21.22
2018-08-18T18:39:54.288Z,21.15
2018-08-18T18:42:23.168Z,21.04
2018-08-18T18:44:51.827Z,20.90
2018-08-18T18:47:20.506Z,20.75
2018-08-18T18:49:49.154Z,20.60
2018-08-18T18:52:17.911Z,20.46
2018-08-18T18:54:46.660Z,20.34
2018-08-18T18:57:15.745Z,20.23
2018-08-18T18:59:53.427Z,20.12
2018-08-18T19:02:43.531Z,20.01
2018-08-18T19:05:20.690Z,19.82
2018-08-18T19:07:54.567Z,19.68
2018-08-18T19:10:23.908Z,19.55
2018-08-18T19:12:54.315Z,19.39
2018-08-18T19:15:22.994Z,19.32
2018-08-18T19:17:51.678Z,19.22
2018-08-18T19:20:26.007Z,19.11
2018-08-18T19:23:04.252Z,18.98
2018-08-18T19:25:33.770Z,18.89
2018-08-18T19:28:02.757Z,18.81
2018-08-18T19:30:32.196Z,18.70
2018-08-18T19:33:00.940Z,18.56
2018-08-18T19:35:35.676Z,18.35
2018-08-18T19:38:05.503Z,18.19
2018-08-18T19:40:35.147Z,18.10
2018-08-18T19:43:05.464Z,18.04
2018-08-18T19:45:34.103Z,18.00
2018-08-18T19:48:02.780Z,17.97
2018-08-18T19:50:31.422Z,17.89
2018-08-18T19:53:05.304Z,17.78
2018-08-18T19:55:33.930Z,17.65
2018-08-18T19:58:02.612Z,17.56
2018-08-18T20:00:31.289Z,17.53
2018-08-18T20:03:08.388Z,17.51
2018-08-18T20:05:37.042Z,17.46
2018-08-18T20:08:05.854Z,17.40
2018-08-18T20:10:43.916Z,17.29
2018-08-18T20:13:13.275Z,17.19
2018-08-18T20:15:44.099Z,17.11
2018-08-18T20:18:12.758Z,17.01
2018-08-18T20:20:41.407Z,16.97
2018-08-18T20:23:10.072Z,16.94
2018-08-18T20:25:38.741Z,16.89
2018-08-18T20:28:07.424Z,16.81
2018-08-18T20:30:36.065Z,16.64
2018-08-18T20:33:04.715Z,16.47
2018-08-18T20:35:33.352Z,16.36
2018-08-18T20:38:02.029Z,16.23
2018-08-18T20:40:30.700Z,16.10
2018-08-18T20:42:59.368Z,16.05
2018-08-18T20:45:33.842Z,16.01
2018-08-18T20:48:02.505Z,16.01
2018-08-18T20:50:31.149Z,15.98
2018-08-18T20:53:13.361Z,15.96
2018-08-18T20:55:43.723Z,15.98
2018-08-18T20:58:12.932Z,16.00
2018-08-18T21:00:41.636Z,15.94
2018-08-18T21:03:10.335Z,15.79
2018-08-18T21:05:38.960Z,15.62
2018-08-18T21:08:15.846Z,15.41
2018-08-18T21:10:44.471Z,15.24
2018-08-18T21:13:13.104Z,15.14
2018-08-18T21:15:41.773Z,15.14
2018-08-18T21:18:25.043Z,15.16
2018-08-18T21:20:53.730Z,15.23
2018-08-18T21:23:24.619Z,15.26
2018-08-18T21:25:54.053Z,15.26
2018-08-18T21:28:25.486Z,15.25
2018-08-18T21:30:54.137Z,15.23
2018-08-18T21:33:25.168Z,15.28
2018-08-18T21:35:54.276Z,15.33
2018-08-18T21:38:22.928Z,15.35
2018-08-18T21:40:51.576Z,15.24
2018-08-18T21:43:33.525Z,15.10
2018-08-18T21:46:02.171Z,15.01
2018-08-18T21:48:42.038Z,14.94
2018-08-18T21:51:10.690Z,14.89
2018-08-18T21:53:39.343Z,14.89
2018-08-18T21:56:08.016Z,14.87
2018-08-18T21:58:36.664Z,14.83
2018-08-18T22:01:10.627Z,14.81
2018-08-18T22:03:39.337Z,14.84
2018-08-18T22:06:08.001Z,14.86
2018-08-18T22:08:36.688Z,14.81
2018-08-18T22:11:05.438Z,14.78
2018-08-18T22:13:39.319Z,14.71
2018-08-18T22:16:07.986Z,14.62
2018-08-18T22:18:36.652Z,14.51
2018-08-18T22:21:10.823Z,14.37
2018-08-18T22:23:39.466Z,14.34
2018-08-18T22:26:12.225Z,14.36
2018-08-18T22:28:40.893Z,14.38
2018-08-18T22:31:09.704Z,14.36
2018-08-18T22:33:41.587Z,14.32
2018-08-18T22:36:10.229Z,14.32
2018-08-18T22:38:39.368Z,14.34
2018-08-18T22:41:08.036Z,14.27
2018-08-18T22:43:36.866Z,14.23
2018-08-18T22:46:05.554Z,14.17
2018-08-18T22:48:34.232Z,14.14
2018-08-18T22:51:02.879Z,14.14
2018-08-18T22:53:31.510Z,14.07
2018-08-18T22:56:03.155Z,14.02
2018-08-18T22:58:31.907Z,13.93
2018-08-18T23:01:00.569Z,13.91
2018-08-18T23:03:29.504Z,13.87
2018-08-18T23:05:59.004Z,13.85
2018-08-18T23:08:27.653Z,13.83
2018-08-18T23:10:56.306Z,13.82
2018-08-18T23:13:24.934Z,13.79
2018-08-18T23:15:53.594Z,13.77
2018-08-18T23:18:22.241Z,13.72
2018-08-18T23:20:50.892Z,13.69
2018-08-18T23:23:19.527Z,13.69
2018-08-18T23:25:48.151Z,13.68
2018-08-18T23:28:16.783Z,13.65
2018-08-18T23:30:45.434Z,13.60
2018-08-18T23:33:14.081Z,13.54
2018-08-18T23:35:42.752Z,13.45
2018-08-18T23:38:11.427Z,13.36
2018-08-18T23:40:40.093Z,13.23
2018-08-18T23:43:08.737Z,13.09
2018-08-18T23:45:42.708Z,13.00
2018-08-18T23:48:12.950Z,12.98
2018-08-18T23:50:42.806Z,13.01
2018-08-18T23:53:14.324Z,13.07
2018-08-18T23:56:00.740Z,13.11
2018-08-18T23:58:30.582Z,13.13
